sensor_id;sensor_type;location;lat;lon;timestamp;P1;durP1;ratioP1;P2;durP2;ratioP2
16063;SDS011;8136;53.172;8.256;2023-05-10T00:01:43;9.13;;;8.17;;
16063;SDS011;8136;53.172;8.256;2023-05-10T00:04:10;9.23;;;8.27;;
16063;SDS011;8136;53.172;8.256;2023-05-10T00:06:36;10.70;;;8.70;;
16063;SDS011;8136;53.172;8.256;2023-05-10T00:09:03;10.20;;;9.10;;
16063;SDS011;8136;53.172;8.256;2023-05-10T00:11:30;9.70;;;8.47;;
16063;SDS011;8136;53.172;8.256;2023-05-10T00:13:58;10.70;;;8.50;;
16063;SDS011;8136;53.172;8.256;2023-05-10T00:16:25;11.97;;;9.37;;
16063;SDS011;8136;53.172;8.256;2023-05-10T00:18:52;10.13;;;9.13;;
16063;SDS011;8136;53.172;8.256;2023-05-10T00:21:19;10.17;;;9.17;;
16063;SDS011;8136;53.172;8.256;2023-05-10T00:23:45;9.70;;;8.57;;
16063;SDS011;8136;53.172;8.256;2023-05-10T00:26:12;9.97;;;8.97;;
16063;SDS011;8136;53.172;8.256;2023-05-10T00:28:39;10.47;;;8.07;;
16063;SDS011;8136;53.172;8.256;2023-05-10T00:31:08;9.87;;;8.87;;
16063;SDS011;8136;53.172;8.256;2023-05-10T00:33:34;8.93;;;7.73;;
16063;SDS011;8136;53.172;8.256;2023-05-10T00:36:01;9.43;;;7.93;;
16063;SDS011;8136;53.172;8.256;2023-05-10T00:38:28;8.77;;;7.60;;
16063;SDS011;8136;53.172;8.256;2023-05-10T00:40:55;10.77;;;8.90;;
16063;SDS011;8136;53.172;8.256;2023-05-10T00:43:22;11.20;;;8.87;;
16063;SDS011;8136;53.172;8.256;2023-05-10T00:45:48;9.57;;;8.57;;
16063;SDS011;8136;53.172;8.256;2023-05-10T00:48:17;8.80;;;7.90;;
16063;SDS011;8136;53.172;8.256;2023-05-10T00:50:44;8.03;;;7.27;;
16063;SDS011;8136;53.172;8.256;2023-05-10T00:53:11;9.60;;;8.33;;
16063;SDS011;8136;53.172;8.256;2023-05-10T00:55:38;9.60;;;8.60;;
16063;SDS011;8136;53.172;8.256;2023-05-10T00:58:05;9.80;;;8.53;;
16063;SDS011;8136;53.172;8.256;2023-05-10T01:00:32;8.07;;;7.23;;
16063;SDS011;8136;53.172;8.256;2023-05-10T01:02:59;8.47;;;7.77;;
16063;SDS011;8136;53.172;8.256;2023-05-10T01:05:28;9.30;;;7.30;;
16063;SDS011;8136;53.172;8.256;2023-05-10T01:07:55;7.90;;;7.20;;
16063;SDS011;8136;53.172;8.256;2023-05-10T01:10:22;8.63;;;7.83;;
16063;SDS011;8136;53.172;8.256;2023-05-10T01:12:49;7.70;;;7.00;;
16063;SDS011;8136;53.172;8.256;2023-05-10T01:15:16;8.83;;;7.93;;
16063;SDS011;8136;53.172;8.256;2023-05-10T01:17:44;9.40;;;7.93;;
16063;SDS011;8136;53.172;8.256;2023-05-10T01:20:13;8.43;;;7.53;;
16063;SDS011;8136;53.172;8.256;2023-05-10T01:22:46;9.20;;;8.30;;
16063;SDS011;8136;53.172;8.256;2023-05-10T01:25:35;9.33;;;8.20;;
16063;SDS011;8136;53.172;8.256;2023-05-10T01:28:31;8.40;;;7.47;;
16063;SDS011;8136;53.172;8.256;2023-05-10T01:31:22;9.57;;;7.37;;
16063;SDS011;8136;53.172;8.256;2023-05-10T01:33:59;8.93;;;8.03;;
16063;SDS011;8136;53.172;8.256;2023-05-10T01:36:30;8.80;;;7.90;;
16063;SDS011;8136;53.172;8.256;2023-05-10T01:38:59;9.77;;;8.57;;
16063;SDS011;8136;53.172;8.256;2023-05-10T01:41:35;10.10;;;8.40;;
16063;SDS011;8136;53.172;8.256;2023-05-10T01:44:09;8.80;;;7.90;;
16063;SDS011;8136;53.172;8.256;2023-05-10T01:46:43;9.07;;;8.00;;
16063;SDS011;8136;53.172;8.256;2023-05-10T01:49:31;10.10;;;9.00;;
16063;SDS011;8136;53.172;8.256;2023-05-10T01:52:04;10.00;;;8.43;;
16063;SDS011;8136;53.172;8.256;2023-05-10T01:54:34;12.90;;;9.23;;
16063;SDS011;8136;53.172;8.256;2023-05-10T01:57:05;10.33;;;9.23;;
16063;SDS011;8136;53.172;8.256;2023-05-10T01:59:35;11.10;;;10.00;;
16063;SDS011;8136;53.172;8.256;2023-05-10T02:02:05;10.47;;;9.13;;
16063;SDS011;8136;53.172;8.256;2023-05-10T02:04:38;10.70;;;9.20;;
16063;SDS011;8136;53.172;8.256;2023-05-10T02:07:06;10.23;;;9.17;;
16063;SDS011;8136;53.172;8.256;2023-05-10T02:09:35;10.57;;;9.00;;
16063;SDS011;8136;53.172;8.256;2023-05-10T02:12:04;11.37;;;8.40;;
16063;SDS011;8136;53.172;8.256;2023-05-10T02:14:34;8.67;;;7.77;;
16063;SDS011;8136;53.172;8.256;2023-05-10T02:17:03;9.50;;;8.60;;
16063;SDS011;8136;53.172;8.256;2023-05-10T02:19:32;8.90;;;8.00;;
16063;SDS011;8136;53.172;8.256;2023-05-10T02:22:01;8.27;;;7.47;;
16063;SDS011;8136;53.172;8.256;2023-05-10T02:24:29;7.57;;;6.77;;
16063;SDS011;8136;53.172;8.256;2023-05-10T02:26:58;7.10;;;6.37;;
16063;SDS011;8136;53.172;8.256;2023-05-10T02:29:26;7.73;;;6.33;;
16063;SDS011;8136;53.172;8.256;2023-05-10T02:31:54;7.33;;;6.40;;
16063;SDS011;8136;53.172;8.256;2023-05-10T02:34:22;8.00;;;7.20;;
16063;SDS011;8136;53.172;8.256;2023-05-10T02:36:51;7.87;;;6.27;;
16063;SDS011;8136;53.172;8.256;2023-05-10T02:39:20;7.30;;;6.37;;
16063;SDS011;8136;53.172;8.256;2023-05-10T02:41:48;8.47;;;7.00;;
16063;SDS011;8136;53.172;8.256;2023-05-10T02:44:17;7.23;;;6.47;;
16063;SDS011;8136;53.172;8.256;2023-05-10T02:46:45;7.77;;;6.93;;
16063;SDS011;8136;53.172;8.256;2023-05-10T02:49:12;7.93;;;6.43;;
16063;SDS011;8136;53.172;8.256;2023-05-10T02:51:41;8.07;;;7.13;;
16063;SDS011;8136;53.172;8.256;2023-05-10T02:54:11;10.83;;;8.90;;
16063;SDS011;8136;53.172;8.256;2023-05-10T02:56:46;9.57;;;8.17;;
16063;SDS011;8136;53.172;8.256;2023-05-10T02:59:16;10.17;;;8.83;;
16063;SDS011;8136;53.172;8.256;2023-05-10T03:01:43;11.20;;;9.30;;
16063;SDS011;8136;53.172;8.256;2023-05-10T03:04:10;11.43;;;9.67;;
16063;SDS011;8136;53.172;8.256;2023-05-10T03:06:37;11.60;;;10.20;;
16063;SDS011;8136;53.172;8.256;2023-05-10T03:09:04;10.80;;;9.63;;
16063;SDS011;8136;53.172;8.256;2023-05-10T03:11:33;13.00;;;9.93;;
16063;SDS011;8136;53.172;8.256;2023-05-10T03:14:13;13.17;;;10.10;;
16063;SDS011;8136;53.172;8.256;2023-05-10T03:16:51;15.93;;;9.70;;
16063;SDS011;8136;53.172;8.256;2023-05-10T03:19:31;9.83;;;8.80;;
16063;SDS011;8136;53.172;8.256;2023-05-10T03:22:03;11.43;;;9.43;;
16063;SDS011;8136;53.172;8.256;2023-05-10T03:24:39;10.90;;;9.70;;
16063;SDS011;8136;53.172;8.256;2023-05-10T03:27:07;9.57;;;8.53;;
16063;SDS011;8136;53.172;8.256;2023-05-10T03:29:37;12.70;;;10.20;;
16063;SDS011;8136;53.172;8.256;2023-05-10T03:32:05;13.07;;;11.10;;
16063;SDS011;8136;53.172;8.256;2023-05-10T03:34:32;14.23;;;11.50;;
16063;SDS011;8136;53.172;8.256;2023-05-10T03:36:58;12.83;;;10.57;;
16063;SDS011;8136;53.172;8.256;2023-05-10T03:39:25;12.37;;;10.30;;
16063;SDS011;8136;53.172;8.256;2023-05-10T03:41:52;11.87;;;10.63;;
16063;SDS011;8136;53.172;8.256;2023-05-10T03:44:19;10.40;;;9.03;;
16063;SDS011;8136;53.172;8.256;2023-05-10T03:46:47;10.40;;;9.37;;
16063;SDS011;8136;53.172;8.256;2023-05-10T03:49:14;9.70;;;8.67;;
16063;SDS011;8136;53.172;8.256;2023-05-10T03:51:40;10.67;;;9.33;;
16063;SDS011;8136;53.172;8.256;2023-05-10T03:54:07;10.20;;;9.20;;
16063;SDS011;8136;53.172;8.256;2023-05-10T03:56:34;11.07;;;9.90;;
16063;SDS011;8136;53.172;8.256;2023-05-10T03:59:01;12.20;;;9.47;;
16063;SDS011;8136;53.172;8.256;2023-05-10T04:01:32;10.47;;;9.20;;
16063;SDS011;8136;53.172;8.256;2023-05-10T04:04:00;12.43;;;10.07;;
16063;SDS011;8136;53.172;8.256;2023-05-10T04:06:27;10.63;;;9.23;;
16063;SDS011;8136;53.172;8.256;2023-05-10T04:08:54;11.50;;;9.97;;
16063;SDS011;8136;53.172;8.256;2023-05-10T04:11:20;11.77;;;10.40;;
16063;SDS011;8136;53.172;8.256;2023-05-10T04:13:47;10.80;;;9.70;;
16063;SDS011;8136;53.172;8.256;2023-05-10T04:16:14;10.83;;;9.73;;
16063;SDS011;8136;53.172;8.256;2023-05-10T04:18:41;11.67;;;10.40;;
16063;SDS011;8136;53.172;8.256;2023-05-10T04:21:12;12.17;;;10.90;;
16063;SDS011;8136;53.172;8.256;2023-05-10T04:23:39;13.03;;;10.73;;
16063;SDS011;8136;53.172;8.256;2023-05-10T04:26:06;12.43;;;9.57;;
16063;SDS011;8136;53.172;8.256;2023-05-10T04:28:33;11.70;;;10.10;;
16063;SDS011;8136;53.172;8.256;2023-05-10T04:31:00;10.90;;;9.80;;
16063;SDS011;8136;53.172;8.256;2023-05-10T04:33:28;11.13;;;9.93;;
16063;SDS011;8136;53.172;8.256;2023-05-10T04:35:55;11.37;;;9.30;;
16063;SDS011;8136;53.172;8.256;2023-05-10T04:38:23;9.73;;;8.73;;
16063;SDS011;8136;53.172;8.256;2023-05-10T04:40:50;9.50;;;6.90;;
16063;SDS011;8136;53.172;8.256;2023-05-10T04:43:17;6.70;;;6.00;;
16063;SDS011;8136;53.172;8.256;2023-05-10T04:45:43;5.80;;;5.30;;
16063;SDS011;8136;53.172;8.256;2023-05-10T04:48:10;5.47;;;4.70;;
16063;SDS011;8136;53.172;8.256;2023-05-10T04:50:37;4.40;;;3.83;;
16063;SDS011;8136;53.172;8.256;2023-05-10T04:53:05;4.47;;;3.93;;
16063;SDS011;8136;53.172;8.256;2023-05-10T04:55:33;4.43;;;3.43;;
16063;SDS011;8136;53.172;8.256;2023-05-10T04:58:00;4.17;;;3.53;;
16063;SDS011;8136;53.172;8.256;2023-05-10T05:00:27;3.30;;;2.73;;
16063;SDS011;8136;53.172;8.256;2023-05-10T05:02:54;2.43;;;2.10;;
16063;SDS011;8136;53.172;8.256;2023-05-10T05:05:21;2.43;;;2.10;;
16063;SDS011;8136;53.172;8.256;2023-05-10T05:07:48;2.70;;;2.10;;
16063;SDS011;8136;53.172;8.256;2023-05-10T05:10:14;2.17;;;1.93;;
16063;SDS011;8136;53.172;8.256;2023-05-10T05:12:43;1.73;;;1.53;;
16063;SDS011;8136;53.172;8.256;2023-05-10T05:15:10;2.93;;;1.80;;
16063;SDS011;8136;53.172;8.256;2023-05-10T05:17:37;1.70;;;1.60;;
16063;SDS011;8136;53.172;8.256;2023-05-10T05:20:04;2.10;;;1.60;;
16063;SDS011;8136;53.172;8.256;2023-05-10T05:22:32;3.70;;;2.40;;
16063;SDS011;8136;53.172;8.256;2023-05-10T05:24:59;2.80;;;2.50;;
16063;SDS011;8136;53.172;8.256;2023-05-10T05:27:27;2.50;;;2.03;;
16063;SDS011;8136;53.172;8.256;2023-05-10T05:29:55;2.90;;;2.43;;
16063;SDS011;8136;53.172;8.256;2023-05-10T05:32:23;2.87;;;2.57;;
16063;SDS011;8136;53.172;8.256;2023-05-10T05:34:50;3.30;;;2.90;;
16063;SDS011;8136;53.172;8.256;2023-05-10T05:37:17;3.20;;;2.90;;
16063;SDS011;8136;53.172;8.256;2023-05-10T05:39:46;4.40;;;2.97;;
16063;SDS011;8136;53.172;8.256;2023-05-10T05:42:13;4.73;;;3.10;;
16063;SDS011;8136;53.172;8.256;2023-05-10T05:44:41;3.60;;;3.27;;
16063;SDS011;8136;53.172;8.256;2023-05-10T05:47:10;3.83;;;3.37;;
16063;SDS011;8136;53.172;8.256;2023-05-10T05:49:37;4.00;;;3.40;;
16063;SDS011;8136;53.172;8.256;2023-05-10T05:52:04;4.00;;;3.47;;
16063;SDS011;8136;53.172;8.256;2023-05-10T05:54:31;4.80;;;3.87;;
16063;SDS011;8136;53.172;8.256;2023-05-10T05:56:58;4.40;;;3.73;;
16063;SDS011;8136;53.172;8.256;2023-05-10T05:59:26;4.33;;;3.60;;
16063;SDS011;8136;53.172;8.256;2023-05-10T06:01:53;5.87;;;4.50;;
16063;SDS011;8136;53.172;8.256;2023-05-10T06:04:21;4.77;;;4.00;;
16063;SDS011;8136;53.172;8.256;2023-05-10T06:06:48;5.03;;;4.10;;
16063;SDS011;8136;53.172;8.256;2023-05-10T06:09:15;5.57;;;4.83;;
16063;SDS011;8136;53.172;8.256;2023-05-10T06:11:41;5.00;;;3.97;;
16063;SDS011;8136;53.172;8.256;2023-05-10T06:14:08;5.57;;;4.80;;
16063;SDS011;8136;53.172;8.256;2023-05-10T06:16:35;4.93;;;4.33;;
16063;SDS011;8136;53.172;8.256;2023-05-10T06:19:02;4.77;;;4.10;;
16063;SDS011;8136;53.172;8.256;2023-05-10T06:21:30;4.93;;;4.43;;
16063;SDS011;8136;53.172;8.256;2023-05-10T06:23:57;5.13;;;4.40;;
16063;SDS011;8136;53.172;8.256;2023-05-10T06:26:24;5.53;;;4.57;;
16063;SDS011;8136;53.172;8.256;2023-05-10T06:28:51;5.70;;;4.63;;
16063;SDS011;8136;53.172;8.256;2023-05-10T06:31:17;5.10;;;4.60;;
16063;SDS011;8136;53.172;8.256;2023-05-10T06:33:44;5.00;;;4.50;;
16063;SDS011;8136;53.172;8.256;2023-05-10T06:36:11;6.23;;;5.00;;
16063;SDS011;8136;53.172;8.256;2023-05-10T06:38:39;5.70;;;4.30;;
16063;SDS011;8136;53.172;8.256;2023-05-10T06:41:06;4.80;;;4.30;;
16063;SDS011;8136;53.172;8.256;2023-05-10T06:43:33;4.70;;;4.20;;
16063;SDS011;8136;53.172;8.256;2023-05-10T06:46:00;4.73;;;4.23;;
16063;SDS011;8136;53.172;8.256;2023-05-10T06:48:26;5.27;;;4.70;;
16063;SDS011;8136;53.172;8.256;2023-05-10T06:50:53;5.10;;;4.23;;
16063;SDS011;8136;53.172;8.256;2023-05-10T06:53:20;5.10;;;4.60;;
16063;SDS011;8136;53.172;8.256;2023-05-10T06:55:48;5.40;;;4.67;;
16063;SDS011;8136;53.172;8.256;2023-05-10T06:58:15;6.87;;;4.97;;
16063;SDS011;8136;53.172;8.256;2023-05-10T07:00:42;6.27;;;5.37;;
16063;SDS011;8136;53.172;8.256;2023-05-10T07:03:10;7.37;;;5.17;;
16063;SDS011;8136;53.172;8.256;2023-05-10T07:05:37;6.17;;;4.70;;
16063;SDS011;8136;53.172;8.256;2023-05-10T07:08:03;5.10;;;4.53;;
16063;SDS011;8136;53.172;8.256;2023-05-10T07:10:30;5.67;;;5.07;;
16063;SDS011;8136;53.172;8.256;2023-05-10T07:12:58;6.23;;;5.43;;
16063;SDS011;8136;53.172;8.256;2023-05-10T07:15:26;6.73;;;5.80;;
16063;SDS011;8136;53.172;8.256;2023-05-10T07:17:53;7.07;;;5.83;;
16063;SDS011;8136;53.172;8.256;2023-05-10T07:20:19;5.77;;;5.00;;
16063;SDS011;8136;53.172;8.256;2023-05-10T07:22:46;6.47;;;5.20;;
16063;SDS011;8136;53.172;8.256;2023-05-10T07:25:13;6.20;;;4.93;;
16063;SDS011;8136;53.172;8.256;2023-05-10T07:27:40;6.70;;;5.37;;
16063;SDS011;8136;53.172;8.256;2023-05-10T07:30:08;9.90;;;5.63;;
16063;SDS011;8136;53.172;8.256;2023-05-10T07:32:36;5.70;;;5.10;;
16063;SDS011;8136;53.172;8.256;2023-05-10T07:35:04;7.20;;;5.70;;
16063;SDS011;8136;53.172;8.256;2023-05-10T07:37:31;6.37;;;5.40;;
16063;SDS011;8136;53.172;8.256;2023-05-10T07:39:58;8.03;;;6.30;;
16063;SDS011;8136;53.172;8.256;2023-05-10T07:42:25;6.10;;;5.23;;
16063;SDS011;8136;53.172;8.256;2023-05-10T07:44:52;6.10;;;5.40;;
16063;SDS011;8136;53.172;8.256;2023-05-10T07:47:20;5.60;;;5.03;;
16063;SDS011;8136;53.172;8.256;2023-05-10T07:49:46;5.83;;;5.03;;
16063;SDS011;8136;53.172;8.256;2023-05-10T07:52:13;5.90;;;5.30;;
16063;SDS011;8136;53.172;8.256;2023-05-10T07:54:40;4.97;;;4.50;;
16063;SDS011;8136;53.172;8.256;2023-05-10T07:57:07;4.70;;;3.90;;
16063;SDS011;8136;53.172;8.256;2023-05-10T07:59:33;5.47;;;4.77;;
16063;SDS011;8136;53.172;8.256;2023-05-10T08:02:00;5.70;;;4.90;;
16063;SDS011;8136;53.172;8.256;2023-05-10T08:04:28;5.00;;;4.17;;
16063;SDS011;8136;53.172;8.256;2023-05-10T08:06:55;5.93;;;4.57;;
16063;SDS011;8136;53.172;8.256;2023-05-10T08:09:22;4.93;;;4.17;;
16063;SDS011;8136;53.172;8.256;2023-05-10T08:11:49;4.93;;;3.67;;
16063;SDS011;8136;53.172;8.256;2023-05-10T08:14:16;4.40;;;3.97;;
16063;SDS011;8136;53.172;8.256;2023-05-10T08:16:43;4.50;;;3.60;;
16063;SDS011;8136;53.172;8.256;2023-05-10T08:19:09;7.70;;;3.80;;
16063;SDS011;8136;53.172;8.256;2023-05-10T08:21:38;4.20;;;3.80;;
16063;SDS011;8136;53.172;8.256;2023-05-10T08:24:05;6.53;;;4.10;;
16063;SDS011;8136;53.172;8.256;2023-05-10T08:26:33;4.87;;;4.10;;
16063;SDS011;8136;53.172;8.256;2023-05-10T08:28:59;3.67;;;3.13;;
16063;SDS011;8136;53.172;8.256;2023-05-10T08:31:26;5.23;;;3.63;;
16063;SDS011;8136;53.172;8.256;2023-05-10T08:33:53;5.00;;;3.47;;
16063;SDS011;8136;53.172;8.256;2023-05-10T08:36:20;4.13;;;3.73;;
16063;SDS011;8136;53.172;8.256;2023-05-10T08:38:50;5.97;;;3.20;;
16063;SDS011;8136;53.172;8.256;2023-05-10T08:41:18;4.37;;;2.70;;
16063;SDS011;8136;53.172;8.256;2023-05-10T08:43:46;4.07;;;3.00;;
16063;SDS011;8136;53.172;8.256;2023-05-10T08:46:13;3.10;;;2.70;;
16063;SDS011;8136;53.172;8.256;2023-05-10T08:48:43;3.60;;;2.90;;
16063;SDS011;8136;53.172;8.256;2023-05-10T08:51:12;3.50;;;3.13;;
16063;SDS011;8136;53.172;8.256;2023-05-10T08:53:41;3.93;;;2.97;;
16063;SDS011;8136;53.172;8.256;2023-05-10T08:56:09;5.30;;;2.67;;
16063;SDS011;8136;53.172;8.256;2023-05-10T08:58:36;4.03;;;3.20;;
16063;SDS011;8136;53.172;8.256;2023-05-10T09:01:03;2.87;;;2.57;;
16063;SDS011;8136;53.172;8.256;2023-05-10T09:03:31;4.87;;;3.03;;
16063;SDS011;8136;53.172;8.256;2023-05-10T09:05:58;3.47;;;3.03;;
16063;SDS011;8136;53.172;8.256;2023-05-10T09:08:25;3.63;;;3.20;;
16063;SDS011;8136;53.172;8.256;2023-05-10T09:10:52;4.43;;;3.40;;
16063;SDS011;8136;53.172;8.256;2023-05-10T09:13:21;3.90;;;3.50;;
16063;SDS011;8136;53.172;8.256;2023-05-10T09:15:49;4.10;;;3.60;;
16063;SDS011;8136;53.172;8.256;2023-05-10T09:18:16;4.40;;;3.40;;
16063;SDS011;8136;53.172;8.256;2023-05-10T09:20:43;4.60;;;3.60;;
16063;SDS011;8136;53.172;8.256;2023-05-10T09:23:10;5.17;;;3.47;;
16063;SDS011;8136;53.172;8.256;2023-05-10T09:25:37;5.33;;;3.47;;
16063;SDS011;8136;53.172;8.256;2023-05-10T09:28:05;4.47;;;3.40;;
16063;SDS011;8136;53.172;8.256;2023-05-10T09:30:34;3.70;;;2.63;;
16063;SDS011;8136;53.172;8.256;2023-05-10T09:33:01;3.70;;;2.87;;
16063;SDS011;8136;53.172;8.256;2023-05-10T09:35:29;5.97;;;3.67;;
16063;SDS011;8136;53.172;8.256;2023-05-10T09:37:57;7.63;;;3.70;;
16063;SDS011;8136;53.172;8.256;2023-05-10T09:40:26;4.00;;;3.60;;
16063;SDS011;8136;53.172;8.256;2023-05-10T09:42:55;3.73;;;3.43;;
16063;SDS011;8136;53.172;8.256;2023-05-10T09:45:23;5.00;;;3.40;;
16063;SDS011;8136;53.172;8.256;2023-05-10T09:47:52;4.33;;;3.67;;
16063;SDS011;8136;53.172;8.256;2023-05-10T09:50:19;4.40;;;3.53;;
16063;SDS011;8136;53.172;8.256;2023-05-10T09:52:47;4.20;;;2.97;;
16063;SDS011;8136;53.172;8.256;2023-05-10T09:55:16;2.80;;;2.40;;
16063;SDS011;8136;53.172;8.256;2023-05-10T09:57:44;2.30;;;2.10;;
16063;SDS011;8136;53.172;8.256;2023-05-10T10:00:15;1.37;;;1.27;;
16063;SDS011;8136;53.172;8.256;2023-05-10T10:02:45;1.63;;;1.37;;
16063;SDS011;8136;53.172;8.256;2023-05-10T10:05:15;1.40;;;1.20;;
16063;SDS011;8136;53.172;8.256;2023-05-10T10:07:42;2.00;;;1.10;;
16063;SDS011;8136;53.172;8.256;2023-05-10T10:10:09;1.30;;;1.20;;
16063;SDS011;8136;53.172;8.256;2023-05-10T10:12:38;1.33;;;1.23;;
16063;SDS011;8136;53.172;8.256;2023-05-10T10:15:06;1.30;;;1.20;;
16063;SDS011;8136;53.172;8.256;2023-05-10T10:17:34;1.63;;;1.40;;
16063;SDS011;8136;53.172;8.256;2023-05-10T10:20:03;1.40;;;1.30;;
16063;SDS011;8136;53.172;8.256;2023-05-10T10:25:00;1.37;;;1.27;;
16063;SDS011;8136;53.172;8.256;2023-05-10T10:27:33;1.30;;;1.20;;
16063;SDS011;8136;53.172;8.256;2023-05-10T10:30:08;1.00;;;1.00;;
16063;SDS011;8136;53.172;8.256;2023-05-10T10:32:48;0.87;;;0.87;;
16063;SDS011;8136;53.172;8.256;2023-05-10T10:35:32;1.17;;;1.00;;
16063;SDS011;8136;53.172;8.256;2023-05-10T10:38:01;0.50;;;0.50;;
16063;SDS011;8136;53.172;8.256;2023-05-10T10:40:29;1.17;;;0.67;;
16063;SDS011;8136;53.172;8.256;2023-05-10T10:42:57;0.97;;;0.40;;
16063;SDS011;8136;53.172;8.256;2023-05-10T10:45:24;0.50;;;0.50;;
16063;SDS011;8136;53.172;8.256;2023-05-10T10:50:47;0.50;;;0.40;;
16063;SDS011;8136;53.172;8.256;2023-05-10T10:53:26;0.40;;;0.30;;
16063;SDS011;8136;53.172;8.256;2023-05-10T10:56:02;0.50;;;0.50;;
16063;SDS011;8136;53.172;8.256;2023-05-10T10:58:32;1.03;;;0.60;;
16063;SDS011;8136;53.172;8.256;2023-05-10T11:01:10;0.57;;;0.57;;
16063;SDS011;8136;53.172;8.256;2023-05-10T11:03:38;0.63;;;0.60;;
16063;SDS011;8136;53.172;8.256;2023-05-10T11:06:05;0.70;;;0.50;;
16063;SDS011;8136;53.172;8.256;2023-05-10T11:08:34;0.60;;;0.60;;
16063;SDS011;8136;53.172;8.256;2023-05-10T11:11:08;0.70;;;0.70;;
16063;SDS011;8136;53.172;8.256;2023-05-10T11:13:37;0.40;;;0.40;;
16063;SDS011;8136;53.172;8.256;2023-05-10T11:16:12;0.30;;;0.30;;
16063;SDS011;8136;53.172;8.256;2023-05-10T11:18:40;1.60;;;0.60;;
16063;SDS011;8136;53.172;8.256;2023-05-10T11:21:17;1.13;;;0.40;;
16063;SDS011;8136;53.172;8.256;2023-05-10T11:23:49;0.80;;;0.50;;
16063;SDS011;8136;53.172;8.256;2023-05-10T11:26:17;0.50;;;0.50;;
16063;SDS011;8136;53.172;8.256;2023-05-10T11:28:48;0.53;;;0.50;;
16063;SDS011;8136;53.172;8.256;2023-05-10T11:31:15;0.60;;;0.50;;
16063;SDS011;8136;53.172;8.256;2023-05-10T11:33:43;2.23;;;1.00;;
16063;SDS011;8136;53.172;8.256;2023-05-10T11:36:11;1.20;;;1.00;;
16063;SDS011;8136;53.172;8.256;2023-05-10T11:38:38;2.60;;;1.20;;
16063;SDS011;8136;53.172;8.256;2023-05-10T11:41:06;1.73;;;1.63;;
16063;SDS011;8136;53.172;8.256;2023-05-10T11:43:35;2.23;;;2.03;;
16063;SDS011;8136;53.172;8.256;2023-05-10T11:46:03;3.43;;;2.87;;
16063;SDS011;8136;53.172;8.256;2023-05-10T11:48:30;3.10;;;2.77;;
16063;SDS011;8136;53.172;8.256;2023-05-10T11:50:57;4.67;;;3.53;;
16063;SDS011;8136;53.172;8.256;2023-05-10T11:53:25;4.20;;;3.70;;
16063;SDS011;8136;53.172;8.256;2023-05-10T11:55:53;5.67;;;3.90;;
16063;SDS011;8136;53.172;8.256;2023-05-10T11:58:21;5.80;;;4.33;;
16063;SDS011;8136;53.172;8.256;2023-05-10T12:00:49;5.00;;;4.50;;
16063;SDS011;8136;53.172;8.256;2023-05-10T12:03:16;7.00;;;4.90;;
16063;SDS011;8136;53.172;8.256;2023-05-10T12:05:43;7.07;;;5.30;;
16063;SDS011;8136;53.172;8.256;2023-05-10T12:08:11;6.63;;;5.80;;
16063;SDS011;8136;53.172;8.256;2023-05-10T12:10:38;8.13;;;6.27;;
16063;SDS011;8136;53.172;8.256;2023-05-10T12:13:05;9.43;;;6.37;;
16063;SDS011;8136;53.172;8.256;2023-05-10T12:15:37;8.00;;;6.70;;
16063;SDS011;8136;53.172;8.256;2023-05-10T12:18:04;7.60;;;6.73;;
16063;SDS011;8136;53.172;8.256;2023-05-10T12:20:31;6.93;;;6.10;;
16063;SDS011;8136;53.172;8.256;2023-05-10T12:22:58;9.47;;;7.47;;
16063;SDS011;8136;53.172;8.256;2023-05-10T12:25:29;7.97;;;7.17;;
16063;SDS011;8136;53.172;8.256;2023-05-10T12:27:58;7.57;;;6.70;;
16063;SDS011;8136;53.172;8.256;2023-05-10T12:30:26;7.87;;;6.50;;
16063;SDS011;8136;53.172;8.256;2023-05-10T12:32:59;6.17;;;5.57;;
16063;SDS011;8136;53.172;8.256;2023-05-10T12:35:29;6.07;;;5.47;;
16063;SDS011;8136;53.172;8.256;2023-05-10T12:37:56;5.50;;;5.00;;
16063;SDS011;8136;53.172;8.256;2023-05-10T12:40:23;7.23;;;5.00;;
16063;SDS011;8136;53.172;8.256;2023-05-10T12:42:50;5.83;;;5.00;;
16063;SDS011;8136;53.172;8.256;2023-05-10T12:45:18;5.83;;;5.20;;
16063;SDS011;8136;53.172;8.256;2023-05-10T12:47:45;6.73;;;5.63;;
16063;SDS011;8136;53.172;8.256;2023-05-10T12:50:13;7.03;;;6.33;;
16063;SDS011;8136;53.172;8.256;2023-05-10T12:52:39;6.53;;;5.83;;
16063;SDS011;8136;53.172;8.256;2023-05-10T12:55:06;7.07;;;5.80;;
16063;SDS011;8136;53.172;8.256;2023-05-10T12:57:34;7.67;;;5.77;;
16063;SDS011;8136;53.172;8.256;2023-05-10T13:00:00;6.17;;;5.33;;
16063;SDS011;8136;53.172;8.256;2023-05-10T13:02:28;7.07;;;5.07;;
16063;SDS011;8136;53.172;8.256;2023-05-10T13:04:55;6.73;;;4.80;;
16063;SDS011;8136;53.172;8.256;2023-05-10T13:07:23;5.57;;;4.93;;
16063;SDS011;8136;53.172;8.256;2023-05-10T13:09:50;5.70;;;5.20;;
16063;SDS011;8136;53.172;8.256;2023-05-10T13:12:17;5.27;;;4.53;;
16063;SDS011;8136;53.172;8.256;2023-05-10T13:14:44;5.97;;;5.37;;
16063;SDS011;8136;53.172;8.256;2023-05-10T13:17:10;5.73;;;5.13;;
16063;SDS011;8136;53.172;8.256;2023-05-10T13:19:37;5.07;;;4.57;;
16063;SDS011;8136;53.172;8.256;2023-05-10T13:22:04;5.03;;;4.53;;
16063;SDS011;8136;53.172;8.256;2023-05-10T13:24:32;6.00;;;5.17;;
16063;SDS011;8136;53.172;8.256;2023-05-10T13:26:59;5.43;;;3.80;;
16063;SDS011;8136;53.172;8.256;2023-05-10T13:29:26;4.30;;;3.43;;
16063;SDS011;8136;53.172;8.256;2023-05-10T13:31:53;3.50;;;3.10;;
16063;SDS011;8136;53.172;8.256;2023-05-10T13:34:19;3.50;;;3.03;;
16063;SDS011;8136;53.172;8.256;2023-05-10T13:36:46;3.03;;;2.70;;
16063;SDS011;8136;53.172;8.256;2023-05-10T13:39:14;3.33;;;3.00;;
16063;SDS011;8136;53.172;8.256;2023-05-10T13:41:42;3.63;;;2.90;;
16063;SDS011;8136;53.172;8.256;2023-05-10T13:44:11;2.83;;;2.63;;
16063;SDS011;8136;53.172;8.256;2023-05-10T13:46:38;2.80;;;2.50;;
16063;SDS011;8136;53.172;8.256;2023-05-10T13:49:05;3.57;;;2.70;;
16063;SDS011;8136;53.172;8.256;2023-05-10T13:51:33;3.03;;;2.60;;
16063;SDS011;8136;53.172;8.256;2023-05-10T13:54:00;2.97;;;2.67;;
16063;SDS011;8136;53.172;8.256;2023-05-10T13:56:27;3.20;;;2.60;;
16063;SDS011;8136;53.172;8.256;2023-05-10T13:58:55;3.27;;;2.97;;
16063;SDS011;8136;53.172;8.256;2023-05-10T14:01:22;2.97;;;2.67;;
16063;SDS011;8136;53.172;8.256;2023-05-10T14:03:49;2.97;;;2.67;;
16063;SDS011;8136;53.172;8.256;2023-05-10T14:06:16;3.00;;;2.20;;
16063;SDS011;8136;53.172;8.256;2023-05-10T14:08:42;3.00;;;2.10;;
16063;SDS011;8136;53.172;8.256;2023-05-10T14:11:09;2.30;;;2.10;;
16063;SDS011;8136;53.172;8.256;2023-05-10T14:13:36;2.00;;;1.90;;
16063;SDS011;8136;53.172;8.256;2023-05-10T14:16:05;3.00;;;2.50;;
16063;SDS011;8136;53.172;8.256;2023-05-10T14:18:32;3.90;;;2.30;;
16063;SDS011;8136;53.172;8.256;2023-05-10T14:20:59;2.30;;;2.10;;
16063;SDS011;8136;53.172;8.256;2023-05-10T14:23:26;2.60;;;2.40;;
16063;SDS011;8136;53.172;8.256;2023-05-10T14:25:53;3.60;;;2.27;;
16063;SDS011;8136;53.172;8.256;2023-05-10T14:28:20;2.07;;;1.87;;
16063;SDS011;8136;53.172;8.256;2023-05-10T14:30:48;2.33;;;1.93;;
16063;SDS011;8136;53.172;8.256;2023-05-10T14:33:17;3.03;;;1.80;;
16063;SDS011;8136;53.172;8.256;2023-05-10T14:35:44;2.13;;;1.70;;
16063;SDS011;8136;53.172;8.256;2023-05-10T14:38:11;2.43;;;1.60;;
16063;SDS011;8136;53.172;8.256;2023-05-10T14:40:38;1.60;;;1.50;;
16063;SDS011;8136;53.172;8.256;2023-05-10T14:43:05;1.57;;;1.47;;
16063;SDS011;8136;53.172;8.256;2023-05-10T14:45:32;2.47;;;1.60;;
16063;SDS011;8136;53.172;8.256;2023-05-10T14:47:58;2.23;;;1.73;;
16063;SDS011;8136;53.172;8.256;2023-05-10T14:50:27;2.03;;;1.70;;
16063;SDS011;8136;53.172;8.256;2023-05-10T14:52:54;2.37;;;1.30;;
16063;SDS011;8136;53.172;8.256;2023-05-10T14:55:21;2.00;;;1.53;;
16063;SDS011;8136;53.172;8.256;2023-05-10T14:57:48;1.70;;;1.23;;
16063;SDS011;8136;53.172;8.256;2023-05-10T15:00:15;1.67;;;1.40;;
16063;SDS011;8136;53.172;8.256;2023-05-10T15:02:44;1.40;;;1.30;;
16063;SDS011;8136;53.172;8.256;2023-05-10T15:05:11;1.67;;;1.50;;
16063;SDS011;8136;53.172;8.256;2023-05-10T15:07:39;1.80;;;1.30;;
16063;SDS011;8136;53.172;8.256;2023-05-10T15:10:08;2.30;;;1.87;;